sensor_id;sensor_type;location;lat;lon;timestamp;temperature;humidity
72114;SHT31;59989;46.220;19.888;2023-05-10T00:02:19;9.43;83.79
72114;SHT31;59989;46.220;19.888;2023-05-10T00:05:21;9.29;84.21
72114;SHT31;59989;46.220;19.888;2023-05-10T00:08:24;9.16;84.70
72114;SHT31;59989;46.220;19.888;2023-05-10T00:11:26;9.16;85.33
72114;SHT31;59989;46.220;19.888;2023-05-10T00:14:29;9.05;85.31
72114;SHT31;59989;46.220;19.888;2023-05-10T00:17:32;9.01;85.45
72114;SHT31;59989;46.220;19.888;2023-05-10T00:20:34;8.98;85.86
72114;SHT31;59989;46.220;19.888;2023-05-10T00:23:37;8.95;85.90
72114;SHT31;59989;46.220;19.888;2023-05-10T00:26:39;8.92;85.98
72114;SHT31;59989;46.220;19.888;2023-05-10T00:29:43;8.84;86.14
72114;SHT31;59989;46.220;19.888;2023-05-10T00:32:45;8.78;86.42
72114;SHT31;59989;46.220;19.888;2023-05-10T00:35:50;8.72;86.65
72114;SHT31;59989;46.220;19.888;2023-05-10T00:38:53;8.75;86.90
72114;SHT31;59989;46.220;19.888;2023-05-10T00:41:55;8.74;86.86
72114;SHT31;59989;46.220;19.888;2023-05-10T00:44:58;8.64;87.12
72114;SHT31;59989;46.220;19.888;2023-05-10T00:48:04;8.60;87.38
72114;SHT31;59989;46.220;19.888;2023-05-10T00:51:06;8.55;87.70
72114;SHT31;59989;46.220;19.888;2023-05-10T00:54:11;8.60;87.71
72114;SHT31;59989;46.220;19.888;2023-05-10T00:57:14;8.57;87.77
72114;SHT31;59989;46.220;19.888;2023-05-10T01:00:17;8.51;87.82
72114;SHT31;59989;46.220;19.888;2023-05-10T01:03:20;8.43;88.02
72114;SHT31;59989;46.220;19.888;2023-05-10T01:06:23;8.38;87.90
72114;SHT31;59989;46.220;19.888;2023-05-10T01:09:27;8.29;88.49
72114;SHT31;59989;46.220;19.888;2023-05-10T01:12:30;8.32;88.71
72114;SHT31;59989;46.220;19.888;2023-05-10T01:15:32;8.33;88.93
72114;SHT31;59989;46.220;19.888;2023-05-10T01:18:38;8.29;89.14
72114;SHT31;59989;46.220;19.888;2023-05-10T01:29:11;8.37;88.63
72114;SHT31;59989;46.220;19.888;2023-05-10T01:32:46;8.29;88.77
72114;SHT31;59989;46.220;19.888;2023-05-10T01:36:05;8.23;88.92
72114;SHT31;59989;46.220;19.888;2023-05-10T01:42:27;8.10;88.99
72114;SHT31;59989;46.220;19.888;2023-05-10T01:45:36;8.00;89.11
72114;SHT31;59989;46.220;19.888;2023-05-10T01:48:59;7.92;89.19
72114;SHT31;59989;46.220;19.888;2023-05-10T01:52:09;7.85;89.37
72114;SHT31;59989;46.220;19.888;2023-05-10T01:55:15;7.81;89.61
72114;SHT31;59989;46.220;19.888;2023-05-10T01:58:30;7.75;89.68
72114;SHT31;59989;46.220;19.888;2023-05-10T02:01:36;7.67;89.77
72114;SHT31;59989;46.220;19.888;2023-05-10T02:04:40;7.55;89.65
72114;SHT31;59989;46.220;19.888;2023-05-10T02:07:43;7.55;90.53
72114;SHT31;59989;46.220;19.888;2023-05-10T02:10:47;7.51;90.56
72114;SHT31;59989;46.220;19.888;2023-05-10T02:13:51;7.54;90.75
72114;SHT31;59989;46.220;19.888;2023-05-10T02:17:02;7.52;90.53
72114;SHT31;59989;46.220;19.888;2023-05-10T02:20:06;7.52;90.61
72114;SHT31;59989;46.220;19.888;2023-05-10T02:23:11;7.50;90.66
72114;SHT31;59989;46.220;19.888;2023-05-10T02:26:14;7.46;90.66
72114;SHT31;59989;46.220;19.888;2023-05-10T02:29:18;7.43;90.70
72114;SHT31;59989;46.220;19.888;2023-05-10T02:32:22;7.47;90.71
72114;SHT31;59989;46.220;19.888;2023-05-10T02:35:27;7.47;90.72
72114;SHT31;59989;46.220;19.888;2023-05-10T02:38:31;7.40;90.75
72114;SHT31;59989;46.220;19.888;2023-05-10T02:41:35;7.32;90.73
72114;SHT31;59989;46.220;19.888;2023-05-10T02:44:41;7.27;90.80
72114;SHT31;59989;46.220;19.888;2023-05-10T02:47:44;7.27;90.82
72114;SHT31;59989;46.220;19.888;2023-05-10T02:50:47;7.19;90.95
72114;SHT31;59989;46.220;19.888;2023-05-10T02:53:54;7.13;91.01
72114;SHT31;59989;46.220;19.888;2023-05-10T02:57:00;7.10;91.11
72114;SHT31;59989;46.220;19.888;2023-05-10T03:00:05;7.06;91.11
72114;SHT31;59989;46.220;19.888;2023-05-10T03:03:08;7.01;91.18
72114;SHT31;59989;46.220;19.888;2023-05-10T03:06:12;7.00;91.24
72114;SHT31;59989;46.220;19.888;2023-05-10T03:09:14;6.95;91.37
72114;SHT31;59989;46.220;19.888;2023-05-10T03:12:38;6.90;91.46
72114;SHT31;59989;46.220;19.888;2023-05-10T03:19:43;6.79;91.56
72114;SHT31;59989;46.220;19.888;2023-05-10T03:22:52;6.75;91.64
72114;SHT31;59989;46.220;19.888;2023-05-10T03:25:56;6.76;91.77
72114;SHT31;59989;46.220;19.888;2023-05-10T03:29:00;6.73;91.90
72114;SHT31;59989;46.220;19.888;2023-05-10T03:32:03;6.76;91.86
72114;SHT31;59989;46.220;19.888;2023-05-10T03:35:11;6.71;91.78
72114;SHT31;59989;46.220;19.888;2023-05-10T03:38:16;6.78;91.90
72114;SHT31;59989;46.220;19.888;2023-05-10T03:41:18;6.78;91.94
72114;SHT31;59989;46.220;19.888;2023-05-10T03:44:22;6.80;91.77
72114;SHT31;59989;46.220;19.888;2023-05-10T03:47:24;6.82;91.89
72114;SHT31;59989;46.220;19.888;2023-05-10T03:50:27;6.82;91.60
72114;SHT31;59989;46.220;19.888;2023-05-10T03:53:30;6.80;91.80
72114;SHT31;59989;46.220;19.888;2023-05-10T03:56:32;6.97;91.93
72114;SHT31;59989;46.220;19.888;2023-05-10T03:59:35;7.04;91.92
72114;SHT31;59989;46.220;19.888;2023-05-10T04:02:37;7.13;91.72
72114;SHT31;59989;46.220;19.888;2023-05-10T04:05:40;7.19;91.64
72114;SHT31;59989;46.220;19.888;2023-05-10T04:08:43;7.28;91.51
72114;SHT31;59989;46.220;19.888;2023-05-10T04:11:45;7.44;91.49
72114;SHT31;59989;46.220;19.888;2023-05-10T04:14:47;7.51;91.31
72114;SHT31;59989;46.220;19.888;2023-05-10T04:17:50;7.55;91.28
72114;SHT31;59989;46.220;19.888;2023-05-10T04:20:53;7.69;91.21
72114;SHT31;59989;46.220;19.888;2023-05-10T04:23:55;7.83;90.83
72114;SHT31;59989;46.220;19.888;2023-05-10T04:26:58;7.92;90.93
72114;SHT31;59989;46.220;19.888;2023-05-10T04:30:01;8.05;90.54
72114;SHT31;59989;46.220;19.888;2023-05-10T04:33:03;8.12;90.38
72114;SHT31;59989;46.220;19.888;2023-05-10T04:36:06;8.29;90.25
72114;SHT31;59989;46.220;19.888;2023-05-10T04:39:09;8.40;89.67
72114;SHT31;59989;46.220;19.888;2023-05-10T04:42:12;8.60;89.43
72114;SHT31;59989;46.220;19.888;2023-05-10T04:45:17;8.72;89.08
72114;SHT31;59989;46.220;19.888;2023-05-10T04:48:19;8.88;88.84
72114;SHT31;59989;46.220;19.888;2023-05-10T04:51:21;9.01;88.30
72114;SHT31;59989;46.220;19.888;2023-05-10T04:54:24;9.22;87.91
72114;SHT31;59989;46.220;19.888;2023-05-10T04:57:27;9.43;87.08
72114;SHT31;59989;46.220;19.888;2023-05-10T05:00:29;9.64;86.19
72114;SHT31;59989;46.220;19.888;2023-05-10T05:03:32;9.95;85.78
72114;SHT31;59989;46.220;19.888;2023-05-10T05:06:34;10.31;85.45
72114;SHT31;59989;46.220;19.888;2023-05-10T05:09:37;10.63;84.57
72114;SHT31;59989;46.220;19.888;2023-05-10T05:12:40;10.97;83.36
72114;SHT31;59989;46.220;19.888;2023-05-10T05:15:42;11.39;82.08
72114;SHT31;59989;46.220;19.888;2023-05-10T05:18:45;11.69;80.41
72114;SHT31;59989;46.220;19.888;2023-05-10T05:21:47;11.90;79.29
72114;SHT31;59989;46.220;19.888;2023-05-10T05:24:49;12.03;79.08
72114;SHT31;59989;46.220;19.888;2023-05-10T05:27:52;12.13;78.64
72114;SHT31;59989;46.220;19.888;2023-05-10T05:30:55;12.16;78.58
72114;SHT31;59989;46.220;19.888;2023-05-10T05:33:57;12.10;78.24
72114;SHT31;59989;46.220;19.888;2023-05-10T05:37:00;12.27;77.27
72114;SHT31;59989;46.220;19.888;2023-05-10T05:40:03;12.38;77.46
72114;SHT31;59989;46.220;19.888;2023-05-10T05:43:06;12.49;76.70
72114;SHT31;59989;46.220;19.888;2023-05-10T05:46:08;12.62;75.47
72114;SHT31;59989;46.220;19.888;2023-05-10T05:49:11;12.73;74.98
72114;SHT31;59989;46.220;19.888;2023-05-10T05:52:14;12.93;74.30
72114;SHT31;59989;46.220;19.888;2023-05-10T05:55:19;13.07;73.42
72114;SHT31;59989;46.220;19.888;2023-05-10T05:58:22;12.92;73.01
72114;SHT31;59989;46.220;19.888;2023-05-10T06:01:25;12.88;72.83
72114;SHT31;59989;46.220;19.888;2023-05-10T06:04:28;13.07;72.74
72114;SHT31;59989;46.220;19.888;2023-05-10T06:07:31;13.12;72.09
72114;SHT31;59989;46.220;19.888;2023-05-10T06:10:33;13.34;72.30
72114;SHT31;59989;46.220;19.888;2023-05-10T06:13:35;13.28;71.90
72114;SHT31;59989;46.220;19.888;2023-05-10T06:16:38;13.48;71.93
72114;SHT31;59989;46.220;19.888;2023-05-10T06:19:41;13.72;71.97
72114;SHT31;59989;46.220;19.888;2023-05-10T06:22:43;13.99;70.77
72114;SHT31;59989;46.220;19.888;2023-05-10T06:25:46;14.06;70.17
72114;SHT31;59989;46.220;19.888;2023-05-10T06:28:49;14.10;69.29
72114;SHT31;59989;46.220;19.888;2023-05-10T06:31:52;14.20;69.27
72114;SHT31;59989;46.220;19.888;2023-05-10T06:34:55;14.28;68.32
72114;SHT31;59989;46.220;19.888;2023-05-10T06:37:57;14.34;68.07
72114;SHT31;59989;46.220;19.888;2023-05-10T06:41:00;14.37;67.70
72114;SHT31;59989;46.220;19.888;2023-05-10T06:44:03;14.64;67.80
72114;SHT31;59989;46.220;19.888;2023-05-10T06:47:06;14.95;67.42
72114;SHT31;59989;46.220;19.888;2023-05-10T06:50:09;14.92;65.25
72114;SHT31;59989;46.220;19.888;2023-05-10T06:53:12;15.28;65.29
72114;SHT31;59989;46.220;19.888;2023-05-10T06:56:30;15.18;64.34
72114;SHT31;59989;46.220;19.888;2023-05-10T06:59:32;15.22;64.66
72114;SHT31;59989;46.220;19.888;2023-05-10T07:02:35;15.55;65.15
72114;SHT31;59989;46.220;19.888;2023-05-10T07:05:38;15.74;63.95
72114;SHT31;59989;46.220;19.888;2023-05-10T07:08:40;15.96;63.48
72114;SHT31;59989;46.220;19.888;2023-05-10T07:11:43;16.18;62.96
72114;SHT31;59989;46.220;19.888;2023-05-10T07:14:45;16.21;61.02
72114;SHT31;59989;46.220;19.888;2023-05-10T07:17:48;16.10;60.36
72114;SHT31;59989;46.220;19.888;2023-05-10T07:20:51;16.35;59.80
72114;SHT31;59989;46.220;19.888;2023-05-10T07:23:54;16.72;59.08
72114;SHT31;59989;46.220;19.888;2023-05-10T07:26:56;16.61;58.59
72114;SHT31;59989;46.220;19.888;2023-05-10T07:29:59;16.84;57.90
72114;SHT31;59989;46.220;19.888;2023-05-10T07:33:02;17.02;57.96
72114;SHT31;59989;46.220;19.888;2023-05-10T07:36:05;17.04;57.57
72114;SHT31;59989;46.220;19.888;2023-05-10T07:39:07;16.81;57.72
72114;SHT31;59989;46.220;19.888;2023-05-10T07:42:25;17.06;56.23
72114;SHT31;59989;46.220;19.888;2023-05-10T07:45:30;16.91;56.07
72114;SHT31;59989;46.220;19.888;2023-05-10T07:48:33;17.37;56.84
72114;SHT31;59989;46.220;19.888;2023-05-10T07:51:35;17.49;56.16
72114;SHT31;59989;46.220;19.888;2023-05-10T07:54:37;17.52;55.91
72114;SHT31;59989;46.220;19.888;2023-05-10T07:57:40;17.74;54.62
72114;SHT31;59989;46.220;19.888;2023-05-10T08:00:42;17.55;54.80
72114;SHT31;59989;46.220;19.888;2023-05-10T08:03:45;17.93;52.78
72114;SHT31;59989;46.220;19.888;2023-05-10T08:06:48;17.69;54.27
72114;SHT31;59989;46.220;19.888;2023-05-10T08:09:50;17.65;55.07
72114;SHT31;59989;46.220;19.888;2023-05-10T08:12:53;17.27;55.72
72114;SHT31;59989;46.220;19.888;2023-05-10T08:15:55;18.23;54.08
72114;SHT31;59989;46.220;19.888;2023-05-10T08:18:58;18.48;53.36
72114;SHT31;59989;46.220;19.888;2023-05-10T08:22:00;17.72;54.57
72114;SHT31;59989;46.220;19.888;2023-05-10T08:25:03;18.55;53.79
72114;SHT31;59989;46.220;19.888;2023-05-10T08:28:06;18.43;53.57
72114;SHT31;59989;46.220;19.888;2023-05-10T08:31:10;18.50;53.69
72114;SHT31;59989;46.220;19.888;2023-05-10T08:34:12;17.95;53.70
72114;SHT31;59989;46.220;19.888;2023-05-10T08:37:14;18.26;54.26
72114;SHT31;59989;46.220;19.888;2023-05-10T08:40:19;18.44;52.39
72114;SHT31;59989;46.220;19.888;2023-05-10T08:43:23;18.32;53.19
72114;SHT31;59989;46.220;19.888;2023-05-10T08:46:28;17.95;54.44
72114;SHT31;59989;46.220;19.888;2023-05-10T08:49:31;17.78;55.31
72114;SHT31;59989;46.220;19.888;2023-05-10T08:52:38;19.03;53.60
72114;SHT31;59989;46.220;19.888;2023-05-10T08:55:42;18.17;54.39
72114;SHT31;59989;46.220;19.888;2023-05-10T08:58:47;18.82;54.77
72114;SHT31;59989;46.220;19.888;2023-05-10T09:01:51;19.03;52.60
72114;SHT31;59989;46.220;19.888;2023-05-10T09:04:55;18.63;53.40
72114;SHT31;59989;46.220;19.888;2023-05-10T09:07:58;18.89;53.45
72114;SHT31;59989;46.220;19.888;2023-05-10T09:11:05;19.33;51.42
72114;SHT31;59989;46.220;19.888;2023-05-10T09:14:08;18.78;52.84
72114;SHT31;59989;46.220;19.888;2023-05-10T09:17:12;18.57;52.54
72114;SHT31;59989;46.220;19.888;2023-05-10T09:20:15;18.55;53.15
72114;SHT31;59989;46.220;19.888;2023-05-10T09:23:19;18.38;53.63
72114;SHT31;59989;46.220;19.888;2023-05-10T09:26:22;19.40;51.99
72114;SHT31;59989;46.220;19.888;2023-05-10T09:29:25;19.87;51.52
72114;SHT31;59989;46.220;19.888;2023-05-10T09:32:42;19.34;51.82
72114;SHT31;59989;46.220;19.888;2023-05-10T09:35:44;19.46;51.35
72114;SHT31;59989;46.220;19.888;2023-05-10T09:38:51;20.22;49.97
72114;SHT31;59989;46.220;19.888;2023-05-10T09:41:54;19.59;51.63
72114;SHT31;59989;46.220;19.888;2023-05-10T09:45:02;19.22;51.93
72114;SHT31;59989;46.220;19.888;2023-05-10T09:48:05;19.45;51.87
72114;SHT31;59989;46.220;19.888;2023-05-10T09:51:08;19.16;52.07
72114;SHT31;59989;46.220;19.888;2023-05-10T09:54:15;19.57;51.76
72114;SHT31;59989;46.220;19.888;2023-05-10T09:57:21;20.39;49.37
72114;SHT31;59989;46.220;19.888;2023-05-10T10:00:27;19.95;48.75
72114;SHT31;59989;46.220;19.888;2023-05-10T10:03:29;21.24;46.55
72114;SHT31;59989;46.220;19.888;2023-05-10T10:06:39;21.39;46.18
72114;SHT31;59989;46.220;19.888;2023-05-10T10:09:42;19.85;49.66
72114;SHT31;59989;46.220;19.888;2023-05-10T10:12:44;19.61;50.29
72114;SHT31;59989;46.220;19.888;2023-05-10T10:15:47;19.05;51.13
72114;SHT31;59989;46.220;19.888;2023-05-10T10:18:53;19.37;49.77
72114;SHT31;59989;46.220;19.888;2023-05-10T10:21:56;20.25;47.77
72114;SHT31;59989;46.220;19.888;2023-05-10T10:24:58;19.77;49.94
72114;SHT31;59989;46.220;19.888;2023-05-10T10:28:16;19.47;50.28
72114;SHT31;59989;46.220;19.888;2023-05-10T10:31:40;20.65;49.62
72114;SHT31;59989;46.220;19.888;2023-05-10T10:34:44;20.69;47.66
72114;SHT31;59989;46.220;19.888;2023-05-10T10:37:47;19.27;50.97
72114;SHT31;59989;46.220;19.888;2023-05-10T10:41:03;20.12;49.82
72114;SHT31;59989;46.220;19.888;2023-05-10T10:47:31;22.20;46.35
72114;SHT31;59989;46.220;19.888;2023-05-10T10:50:43;21.82;45.95
72114;SHT31;59989;46.220;19.888;2023-05-10T10:53:47;20.53;47.68
72114;SHT31;59989;46.220;19.888;2023-05-10T10:57:14;20.45;47.41
72114;SHT31;59989;46.220;19.888;2023-05-10T11:03:23;19.59;49.46
72114;SHT31;59989;46.220;19.888;2023-05-10T11:06:31;19.98;48.55
72114;SHT31;59989;46.220;19.888;2023-05-10T11:09:39;19.63;48.54
72114;SHT31;59989;46.220;19.888;2023-05-10T11:13:05;19.33;49.11
72114;SHT31;59989;46.220;19.888;2023-05-10T11:16:24;22.07;44.29
72114;SHT31;59989;46.220;19.888;2023-05-10T11:19:28;22.75;42.03
72114;SHT31;59989;46.220;19.888;2023-05-10T11:22:49;23.88;40.06
72114;SHT31;59989;46.220;19.888;2023-05-10T11:25:52;22.68;42.09
72114;SHT31;59989;46.220;19.888;2023-05-10T11:28:54;23.02;42.32
72114;SHT31;59989;46.220;19.888;2023-05-10T11:31:58;21.89;43.68
72114;SHT31;59989;46.220;19.888;2023-05-10T11:35:09;20.65;44.83
72114;SHT31;59989;46.220;19.888;2023-05-10T11:38:14;19.81;46.51
72114;SHT31;59989;46.220;19.888;2023-05-10T11:41:18;19.97;46.66
72114;SHT31;59989;46.220;19.888;2023-05-10T11:44:29;19.71;47.21
72114;SHT31;59989;46.220;19.888;2023-05-10T11:47:32;20.33;46.39
72114;SHT31;59989;46.220;19.888;2023-05-10T11:50:34;20.60;46.26
72114;SHT31;59989;46.220;19.888;2023-05-10T11:53:37;20.48;45.86
72114;SHT31;59989;46.220;19.888;2023-05-10T11:56:40;19.90;46.77
72114;SHT31;59989;46.220;19.888;2023-05-10T11:59:43;19.97;46.77
72114;SHT31;59989;46.220;19.888;2023-05-10T12:02:46;20.59;45.88
72114;SHT31;59989;46.220;19.888;2023-05-10T12:05:49;19.74;47.59
72114;SHT31;59989;46.220;19.888;2023-05-10T12:08:51;19.37;49.22
72114;SHT31;59989;46.220;19.888;2023-05-10T12:11:56;19.11;49.88
72114;SHT31;59989;46.220;19.888;2023-05-10T12:15:02;19.16;48.64
72114;SHT31;59989;46.220;19.888;2023-05-10T12:18:05;18.96;48.70
72114;SHT31;59989;46.220;19.888;2023-05-10T12:21:12;19.06;49.10
72114;SHT31;59989;46.220;19.888;2023-05-10T12:24:14;18.79;49.97
72114;SHT31;59989;46.220;19.888;2023-05-10T12:27:20;19.08;50.03
72114;SHT31;59989;46.220;19.888;2023-05-10T12:30:23;18.82;50.14
72114;SHT31;59989;46.220;19.888;2023-05-10T12:33:26;18.84;50.48
72114;SHT31;59989;46.220;19.888;2023-05-10T12:36:29;19.18;49.29
72114;SHT31;59989;46.220;19.888;2023-05-10T12:39:42;19.30;48.41
72114;SHT31;59989;46.220;19.888;2023-05-10T12:42:45;19.84;47.42
72114;SHT31;59989;46.220;19.888;2023-05-10T12:45:47;20.36;46.89
72114;SHT31;59989;46.220;19.888;2023-05-10T12:48:51;21.37;45.17
72114;SHT31;59989;46.220;19.888;2023-05-10T12:52:09;22.52;42.88
72114;SHT31;59989;46.220;19.888;2023-05-10T12:55:12;25.73;37.85
72114;SHT31;59989;46.220;19.888;2023-05-10T12:58:14;25.93;35.35
72114;SHT31;59989;46.220;19.888;2023-05-10T13:01:35;26.31;35.53
72114;SHT31;59989;46.220;19.888;2023-05-10T13:04:38;25.90;36.17
72114;SHT31;59989;46.220;19.888;2023-05-10T13:07:41;25.96;36.00
72114;SHT31;59989;46.220;19.888;2023-05-10T13:10:46;26.43;35.25
72114;SHT31;59989;46.220;19.888;2023-05-10T13:13:48;26.99;35.18
72114;SHT31;59989;46.220;19.888;2023-05-10T13:16:50;26.40;34.97
72114;SHT31;59989;46.220;19.888;2023-05-10T13:19:53;24.94;38.12
72114;SHT31;59989;46.220;19.888;2023-05-10T13:22:56;26.44;35.55
72114;SHT31;59989;46.220;19.888;2023-05-10T13:25:58;27.30;34.91
72114;SHT31;59989;46.220;19.888;2023-05-10T13:29:00;27.06;34.34
72114;SHT31;59989;46.220;19.888;2023-05-10T13:32:03;25.30;36.60
72114;SHT31;59989;46.220;19.888;2023-05-10T13:35:06;23.79;39.79
72114;SHT31;59989;46.220;19.888;2023-05-10T13:38:08;22.21;41.96
72114;SHT31;59989;46.220;19.888;2023-05-10T13:41:11;22.62;42.17
72114;SHT31;59989;46.220;19.888;2023-05-10T13:44:14;27.42;34.88
72114;SHT31;59989;46.220;19.888;2023-05-10T13:47:16;23.75;38.47
72114;SHT31;59989;46.220;19.888;2023-05-10T13:50:19;22.54;41.30
72114;SHT31;59989;46.220;19.888;2023-05-10T13:53:22;23.39;40.56
72114;SHT31;59989;46.220;19.888;2023-05-10T13:56:24;26.14;35.17
72114;SHT31;59989;46.220;19.888;2023-05-10T13:59:27;28.04;33.07
72114;SHT31;59989;46.220;19.888;2023-05-10T14:02:29;27.17;32.96
72114;SHT31;59989;46.220;19.888;2023-05-10T14:05:32;27.29;31.91
72114;SHT31;59989;46.220;19.888;2023-05-10T14:08:35;28.61;31.09
72114;SHT31;59989;46.220;19.888;2023-05-10T14:11:37;27.81;31.10
72114;SHT31;59989;46.220;19.888;2023-05-10T14:14:44;27.26;32.23
72114;SHT31;59989;46.220;19.888;2023-05-10T14:17:47;27.68;31.50
72114;SHT31;59989;46.220;19.888;2023-05-10T14:20:50;27.19;32.07
72114;SHT31;59989;46.220;19.888;2023-05-10T14:23:52;27.81;31.71
72114;SHT31;59989;46.220;19.888;2023-05-10T14:26:54;27.80;31.76
72114;SHT31;59989;46.220;19.888;2023-05-10T14:29:57;28.83;30.54
72114;SHT31;59989;46.220;19.888;2023-05-10T14:33:02;30.44;28.77
72114;SHT31;59989;46.220;19.888;2023-05-10T14:36:05;30.17;28.53
72114;SHT31;59989;46.220;19.888;2023-05-10T14:39:07;29.97;28.68
72114;SHT31;59989;46.220;19.888;2023-05-10T14:42:12;26.91;31.45
72114;SHT31;59989;46.220;19.888;2023-05-10T14:45:14;23.50;36.91
72114;SHT31;59989;46.220;19.888;2023-05-10T14:48:17;22.12;39.76
72114;SHT31;59989;46.220;19.888;2023-05-10T14:51:19;21.54;40.59
72114;SHT31;59989;46.220;19.888;2023-05-10T14:54:23;20.87;41.95
72114;SHT31;59989;46.220;19.888;2023-05-10T14:57:26;20.81;41.74
72114;SHT31;59989;46.220;19.888;2023-05-10T15:00:31;20.88;41.40
72114;SHT31;59989;46.220;19.888;2023-05-10T15:03:34;22.89;38.90
72114;SHT31;59989;46.220;19.888;2023-05-10T15:06:37;25.97;33.68
72114;SHT31;59989;46.220;19.888;2023-05-10T15:09:46;26.14;32.71
72114;SHT31;59989;46.220;19.888;2023-05-10T15:12:55;25.83;32.43
72114;SHT31;59989;46.220;19.888;2023-05-10T15:16:02;26.86;31.39
72114;SHT31;59989;46.220;19.888;2023-05-10T15:19:05;23.68;35.78
72114;SHT31;59989;46.220;19.888;2023-05-10T15:22:07;22.78;37.97
72114;SHT31;59989;46.220;19.888;2023-05-10T15:25:10;21.20;40.43
72114;SHT31;59989;46.220;19.888;2023-05-10T15:28:12;20.83;41.97
72114;SHT31;59989;46.220;19.888;2023-05-10T15:31:15;20.21;43.12
72114;SHT31;59989;46.220;19.888;2023-05-10T15:34:18;19.95;43.96
72114;SHT31;59989;46.220;19.888;2023-05-10T15:37:20;20.04;43.70
72114;SHT31;59989;46.220;19.888;2023-05-10T15:40:25;19.85;44.29
72114;SHT31;59989;46.220;19.888;2023-05-10T15:43:27;19.77;44.70
72114;SHT31;59989;46.220;19.888;2023-05-10T15:46:30;19.87;44.73
72114;SHT31;59989;46.220;19.888;2023-05-10T15:49:32;20.11;44.20
72114;SHT31;59989;46.220;19.888;2023-05-10T15:52:35;19.98;44.73
72114;SHT31;59989;46.220;19.888;2023-05-10T15:55:38;21.15;43.33
72114;SHT31;59989;46.220;19.888;2023-05-10T15:58:40;20.67;43.72
72114;SHT31;59989;46.220;19.888;2023-05-10T16:01:43;20.26;44.72
72114;SHT31;59989;46.220;19.888;2023-05-10T16:04:45;19.81;45.35
72114;SHT31;59989;46.220;19.888;2023-05-10T16:07:48;19.82;45.73
72114;SHT31;59989;46.220;19.888;2023-05-10T16:10:51;19.49;45.83
72114;SHT31;59989;46.220;19.888;2023-05-10T16:13:53;19.26;45.47
72114;SHT31;59989;46.220;19.888;2023-05-10T16:16:56;19.02;46.07
72114;SHT31;59989;46.220;19.888;2023-05-10T16:20:00;18.98;46.84
72114;SHT31;59989;46.220;19.888;2023-05-10T16:23:04;18.94;46.56
72114;SHT31;59989;46.220;19.888;2023-05-10T16:26:06;19.06;47.20
72114;SHT31;59989;46.220;19.888;2023-05-10T16:29:09;18.89;47.96
72114;SHT31;59989;46.220;19.888;2023-05-10T16:32:12;18.82;49.00
72114;SHT31;59989;46.220;19.888;2023-05-10T16:35:15;18.65;49.31
72114;SHT31;59989;46.220;19.888;2023-05-10T16:38:17;18.54;49.71
72114;SHT31;59989;46.220;19.888;2023-05-10T16:41:20;18.44;49.93
72114;SHT31;59989;46.220;19.888;2023-05-10T16:44:22;18.50;49.86
72114;SHT31;59989;46.220;19.888;2023-05-10T16:47:27;18.36;50.45
72114;SHT31;59989;46.220;19.888;2023-05-10T16:50:29;18.18;50.86
72114;SHT31;59989;46.220;19.888;2023-05-10T16:53:32;18.12;51.35
72114;SHT31;59989;46.220;19.888;2023-05-10T16:56:35;18.00;51.98
72114;SHT31;59989;46.220;19.888;2023-05-10T16:59:37;17.88;52.28
72114;SHT31;59989;46.220;19.888;2023-05-10T17:02:40;17.82;52.96
72114;SHT31;59989;46.220;19.888;2023-05-10T17:05:43;17.81;52.98
72114;SHT31;59989;46.220;19.888;2023-05-10T17:08:45;17.72;53.19
72114;SHT31;59989;46.220;19.888;2023-05-10T17:11:48;17.59;53.62
72114;SHT31;59989;46.220;19.888;2023-05-10T17:14:50;17.48;54.49
72114;SHT31;59989;46.220;19.888;2023-05-10T17:17:53;17.32;54.04
72114;SHT31;59989;46.220;19.888;2023-05-10T17:20:56;17.16;54.22
72114;SHT31;59989;46.220;19.888;2023-05-10T17:23:59;17.07;54.27
72114;SHT31;59989;46.220;19.888;2023-05-10T17:27:01;16.97;55.35
72114;SHT31;59989;46.220;19.888;2023-05-10T17:30:05;16.86;55.56
72114;SHT31;59989;46.220;19.888;2023-05-10T17:33:07;16.77;55.93
72114;SHT31;59989;46.220;19.888;2023-05-10T17:36:10;16.68;56.47
72114;SHT31;59989;46.220;19.888;2023-05-10T17:39:13;16.49;56.73
72114;SHT31;59989;46.220;19.888;2023-05-10T17:42:15;16.36;57.42
72114;SHT31;59989;46.220;19.888;2023-05-10T17:45:20;16.24;57.88
72114;SHT31;59989;46.220;19.888;2023-05-10T17:48:22;16.12;58.32
72114;SHT31;59989;46.220;19.888;2023-05-10T17:51:25;16.03;59.11
72114;SHT31;59989;46.220;19.888;2023-05-10T17:54:27;15.89;59.60
72114;SHT31;59989;46.220;19.888;2023-05-10T17:57:30;15.80;60.09
72114;SHT31;59989;46.220;19.888;2023-05-10T18:00:32;15.74;60.44
72114;SHT31;59989;46.220;19.888;2023-05-10T18:03:34;15.70;60.27
72114;SHT31;59989;46.220;19.888;2023-05-10T18:06:37;15.60;60.44
72114;SHT31;59989;46.220;19.888;2023-05-10T18:09:40;15.49;60.99
72114;SHT31;59989;46.220;19.888;2023-05-10T18:12:42;15.38;61.84
72114;SHT31;59989;46.220;19.888;2023-05-10T18:15:45;15.29;62.03
72114;SHT31;59989;46.220;19.888;2023-05-10T18:18:48;15.15;62.06
72114;SHT31;59989;46.220;19.888;2023-05-10T18:21:50;15.09;62.10
72114;SHT31;59989;46.220;19.888;2023-05-10T18:24:53;15.02;61.94
72114;SHT31;59989;46.220;19.888;2023-05-10T18:27:56;14.99;62.45
72114;SHT31;59989;46.220;19.888;2023-05-10T18:30:58;14.92;62.50
72114;SHT31;59989;46.220;19.888;2023-05-10T18:34:00;14.94;61.89
72114;SHT31;59989;46.220;19.888;2023-05-10T18:37:04;14.91;61.80
72114;SHT31;59989;46.220;19.888;2023-05-10T18:40:12;14.81;61.90
72114;SHT31;59989;46.220;19.888;2023-05-10T18:43:15;14.76;62.23
72114;SHT31;59989;46.220;19.888;2023-05-10T18:46:18;14.71;62.36
72114;SHT31;59989;46.220;19.888;2023-05-10T18:49:21;14.67;62.08
72114;SHT31;59989;46.220;19.888;2023-05-10T18:52:23;14.61;62.16
72114;SHT31;59989;46.220;19.888;2023-05-10T18:55:26;14.56;62.02
72114;SHT31;59989;46.220;19.888;2023-05-10T18:58:29;14.55;61.97
72114;SHT31;59989;46.220;19.888;2023-05-10T19:01:32;14.47;62.24
72114;SHT31;59989;46.220;19.888;2023-05-10T19:04:35;14.40;62.41
72114;SHT31;59989;46.220;19.888;2023-05-10T19:07:37;14.34;62.85
72114;SHT31;59989;46.220;19.888;2023-05-10T19:10:42;14.29;63.05
72114;SHT31;59989;46.220;19.888;2023-05-10T19:13:45;14.19;63.72
72114;SHT31;59989;46.220;19.888;2023-05-10T19:16:47;14.12;63.75
72114;SHT31;59989;46.220;19.888;2023-05-10T19:19:53;14.08;63.72
72114;SHT31;59989;46.220;19.888;2023-05-10T19:22:58;14.02;63.84
72114;SHT31;59989;46.220;19.888;2023-05-10T19:26:11;13.94;64.37
72114;SHT31;59989;46.220;19.888;2023-05-10T19:29:14;13.86;64.24
72114;SHT31;59989;46.220;19.888;2023-05-10T19:32:17;13.78;64.45